Scandia, Kansas
Current Conditions -  °F | °C
As of 5:55 PM on Tuesday 25 Nov 2014 (Local Time) from KCNK Reporting Station
Overcast Overcast  
Wind Chill: 42°   Ceiling: 8000
Heat Index: 46°   Visibility: 10mi
Dew Point: 21°   Wind: 8mph
Humidity: 37%   Direction: 170°S
Pressure: 29.94"   Gusts: NA
Location:  39.79°N, 97.78°W
Report Text: KCNK 252355Z AUTO 17007KT 10SM BKN080 OVC095 08/M06 A2994 RMK AO2 SLP148 T00781061 10100 20067 56014
Loading
Personal Weather Stations






























Interactive Weather Map New forecast layout! Learn more

10-Day Weather Forecast

Advertisements
Track Severe Weather on mobile